sensor_id;sensor_type;location;lat;lon;timestamp;pressure;altitude;pressure_sealevel;temperature;humidity
68489;BME280;55481;48.764;8.936;2023-03-21T00:01:32;97220;;;9.1;69
68489;BME280;55481;48.764;8.936;2023-03-21T00:04:02;97220;;;9.1;69
68489;BME280;55481;48.764;8.936;2023-03-21T00:06:33;97220;;;9.1;69
68489;BME280;55481;48.764;8.936;2023-03-21T00:09:04;97220;;;9.1;69
68489;BME280;55481;48.764;8.936;2023-03-21T00:11:35;97220;;;9;69
68489;BME280;55481;48.764;8.936;2023-03-21T00:14:06;97210;;;9.2;69
68489;BME280;55481;48.764;8.936;2023-03-21T00:16:36;97210;;;9.2;68.5
68489;BME280;55481;48.764;8.936;2023-03-21T00:19:07;97210;;;9.1;69
68489;BME280;55481;48.764;8.936;2023-03-21T00:21:38;97210;;;9;69
68489;BME280;55481;48.764;8.936;2023-03-21T00:29:10;97210;;;9.1;69
68489;BME280;55481;48.764;8.936;2023-03-21T00:34:23;97200;;;9;69
68489;BME280;55481;48.764;8.936;2023-03-21T00:36:49;97190;;;9;69
68489;BME280;55481;48.764;8.936;2023-03-21T00:39:20;97190;;;9;69
68489;BME280;55481;48.764;8.936;2023-03-21T00:41:45;97190;;;9;69
68489;BME280;55481;48.764;8.936;2023-03-21T00:44:15;97190;;;8.9;69
68489;BME280;55481;48.764;8.936;2023-03-21T00:46:46;97190;;;8.8;69.5
68489;BME280;55481;48.764;8.936;2023-03-21T00:49:17;97180;;;8.9;69
68489;BME280;55481;48.764;8.936;2023-03-21T00:56:49;97180;;;8.8;69.5
68489;BME280;55481;48.764;8.936;2023-03-21T01:01:56;97170;;;8.7;69.5
68489;BME280;55481;48.764;8.936;2023-03-21T01:06:58;97170;;;8.6;69.5
68489;BME280;55481;48.764;8.936;2023-03-21T01:12:07;97160;;;8.8;69.5
68489;BME280;55481;48.764;8.936;2023-03-21T01:14:37;97160;;;8.8;69
68489;BME280;55481;48.764;8.936;2023-03-21T01:17:00;97160;;;8.7;69.5
68489;BME280;55481;48.764;8.936;2023-03-21T01:24:33;97160;;;8.6;69.5
68489;BME280;55481;48.764;8.936;2023-03-21T01:29:41;97160;;;8.7;69.5
68489;BME280;55481;48.764;8.936;2023-03-21T01:32:12;97160;;;8.6;69.5
68489;BME280;55481;48.764;8.936;2023-03-21T01:34:41;97160;;;8.6;69.5
68489;BME280;55481;48.764;8.936;2023-03-21T01:37:05;97160;;;8.6;69.5
68489;BME280;55481;48.764;8.936;2023-03-21T01:39:36;97170;;;8.6;69.5
68489;BME280;55481;48.764;8.936;2023-03-21T01:42:09;97160;;;8.5;69.5
68489;BME280;55481;48.764;8.936;2023-03-21T01:49:53;97160;;;8.5;69.5
68489;BME280;55481;48.764;8.936;2023-03-21T01:52:30;97160;;;8.5;69.5
68489;BME280;55481;48.764;8.936;2023-03-21T01:54:46;97150;;;8.5;69.5
68489;BME280;55481;48.764;8.936;2023-03-21T01:59:42;97150;;;8.5;70
68489;BME280;55481;48.764;8.936;2023-03-21T02:02:19;97150;;;8.4;70
68489;BME280;55481;48.764;8.936;2023-03-21T02:07:13;97150;;;8.3;70
68489;BME280;55481;48.764;8.936;2023-03-21T02:09:49;97150;;;8.2;70
68489;BME280;55481;48.764;8.936;2023-03-21T02:12:20;97140;;;8.3;70
68489;BME280;55481;48.764;8.936;2023-03-21T02:17:25;97150;;;8.3;70
68489;BME280;55481;48.764;8.936;2023-03-21T02:20:04;97140;;;8.3;70
68489;BME280;55481;48.764;8.936;2023-03-21T02:24:57;97130;;;8.4;69.5
68489;BME280;55481;48.764;8.936;2023-03-21T02:27:23;97130;;;8.5;69.5
68489;BME280;55481;48.764;8.936;2023-03-21T02:29:59;97130;;;8.4;69.5
68489;BME280;55481;48.764;8.936;2023-03-21T02:37:28;97130;;;8.4;69.5
68489;BME280;55481;48.764;8.936;2023-03-21T02:40:00;97130;;;8.4;69.5
68489;BME280;55481;48.764;8.936;2023-03-21T02:42:28;97120;;;8.4;70
68489;BME280;55481;48.764;8.936;2023-03-21T02:47:38;97120;;;8.3;70
68489;BME280;55481;48.764;8.936;2023-03-21T02:49:54;97120;;;8.3;70
68489;BME280;55481;48.764;8.936;2023-03-21T02:52:24;97120;;;8.2;70
68489;BME280;55481;48.764;8.936;2023-03-21T03:02:31;97120;;;8.2;70
68489;BME280;55481;48.764;8.936;2023-03-21T03:05:08;97130;;;8.2;69.5
68489;BME280;55481;48.764;8.936;2023-03-21T03:07:38;97130;;;8.3;69.5
68489;BME280;55481;48.764;8.936;2023-03-21T03:10:10;97120;;;8.3;69.5
68489;BME280;55481;48.764;8.936;2023-03-21T03:12:36;97120;;;8.2;70
68489;BME280;55481;48.764;8.936;2023-03-21T03:17:43;97110;;;8.1;70
68489;BME280;55481;48.764;8.936;2023-03-21T03:20:08;97110;;;8.2;70
68489;BME280;55481;48.764;8.936;2023-03-21T03:22:36;97110;;;8.2;69.5
68489;BME280;55481;48.764;8.936;2023-03-21T03:25:10;97110;;;8.1;70
68489;BME280;55481;48.764;8.936;2023-03-21T03:27:41;97110;;;8;70.5
68489;BME280;55481;48.764;8.936;2023-03-21T03:30:16;97110;;;7.9;70.5
68489;BME280;55481;48.764;8.936;2023-03-21T03:34:57;97110;;;7.9;70.5
68489;BME280;55481;48.764;8.936;2023-03-21T03:37:29;97100;;;8;70
68489;BME280;55481;48.764;8.936;2023-03-21T03:40:01;97100;;;8;70
68489;BME280;55481;48.764;8.936;2023-03-21T03:42:23;97100;;;8;70
68489;BME280;55481;48.764;8.936;2023-03-21T03:44:53;97110;;;8;70
68489;BME280;55481;48.764;8.936;2023-03-21T03:52:28;97100;;;7.9;70
68489;BME280;55481;48.764;8.936;2023-03-21T03:54:57;97100;;;8;70
68489;BME280;55481;48.764;8.936;2023-03-21T03:57:27;97100;;;7.9;70
68489;BME280;55481;48.764;8.936;2023-03-21T04:02:35;97100;;;7.8;70
68489;BME280;55481;48.764;8.936;2023-03-21T04:05:06;97100;;;7.7;70.5
68489;BME280;55481;48.764;8.936;2023-03-21T04:07:37;97100;;;7.6;70.5
68489;BME280;55481;48.764;8.936;2023-03-21T04:10:15;97100;;;7.5;71
68489;BME280;55481;48.764;8.936;2023-03-21T04:17:46;97100;;;7.4;71
68489;BME280;55481;48.764;8.936;2023-03-21T04:20:16;97100;;;7.3;71
68489;BME280;55481;48.764;8.936;2023-03-21T04:22:52;97100;;;7.1;71.5
68489;BME280;55481;48.764;8.936;2023-03-21T04:25:16;97100;;;7;71.5
68489;BME280;55481;48.764;8.936;2023-03-21T04:27:46;97100;;;7.1;71
68489;BME280;55481;48.764;8.936;2023-03-21T04:30:16;97090;;;7.1;71
68489;BME280;55481;48.764;8.936;2023-03-21T04:32:40;97100;;;7;71
68489;BME280;55481;48.764;8.936;2023-03-21T04:35:11;97090;;;6.9;71.5
68489;BME280;55481;48.764;8.936;2023-03-21T04:37:42;97100;;;6.8;71.5
68489;BME280;55481;48.764;8.936;2023-03-21T04:47:38;97090;;;6.5;72
68489;BME280;55481;48.764;8.936;2023-03-21T04:50:10;97090;;;6.4;72
68489;BME280;55481;48.764;8.936;2023-03-21T04:52:40;97090;;;6.4;72
68489;BME280;55481;48.764;8.936;2023-03-21T04:55:11;97090;;;6.3;72
68489;BME280;55481;48.764;8.936;2023-03-21T04:57:41;97090;;;6.2;72
68489;BME280;55481;48.764;8.936;2023-03-21T05:00:13;97090;;;6.1;72.5
68489;BME280;55481;48.764;8.936;2023-03-21T05:02:43;97100;;;6.1;72.5
68489;BME280;55481;48.764;8.936;2023-03-21T05:05:14;97100;;;6.2;72
68489;BME280;55481;48.764;8.936;2023-03-21T05:07:51;97100;;;6.1;72
68489;BME280;55481;48.764;8.936;2023-03-21T05:17:54;97100;;;6.2;71.5
68489;BME280;55481;48.764;8.936;2023-03-21T05:22:56;97100;;;6.2;71.5
68489;BME280;55481;48.764;8.936;2023-03-21T05:25:26;97100;;;6.1;71.5
68489;BME280;55481;48.764;8.936;2023-03-21T05:27:57;97100;;;6.1;72
68489;BME280;55481;48.764;8.936;2023-03-21T05:30:26;97090;;;6.1;71.5
68489;BME280;55481;48.764;8.936;2023-03-21T05:32:53;97090;;;6.1;71.5
68489;BME280;55481;48.764;8.936;2023-03-21T05:35:22;97100;;;6.2;71.5
68489;BME280;55481;48.764;8.936;2023-03-21T05:37:53;97100;;;6.1;71.5
68489;BME280;55481;48.764;8.936;2023-03-21T05:40:24;97100;;;6.1;71.5
68489;BME280;55481;48.764;8.936;2023-03-21T05:42:55;97100;;;6.1;71.5
68489;BME280;55481;48.764;8.936;2023-03-21T05:45:25;97100;;;5.9;72
68489;BME280;55481;48.764;8.936;2023-03-21T05:48:03;97100;;;5.9;72
68489;BME280;55481;48.764;8.936;2023-03-21T05:50:27;97110;;;6.1;71.5
68489;BME280;55481;48.764;8.936;2023-03-21T05:52:58;97110;;;6.2;71.5
68489;BME280;55481;48.764;8.936;2023-03-21T06:00:30;97110;;;6.1;71
68489;BME280;55481;48.764;8.936;2023-03-21T06:03:01;97110;;;6.1;71
68489;BME280;55481;48.764;8.936;2023-03-21T06:05:38;97110;;;6.1;71.5
68489;BME280;55481;48.764;8.936;2023-03-21T06:10:40;97120;;;6.1;71.5
68489;BME280;55481;48.764;8.936;2023-03-21T06:13:10;97120;;;6;71.5
68489;BME280;55481;48.764;8.936;2023-03-21T06:15:43;97120;;;6.1;71.5
68489;BME280;55481;48.764;8.936;2023-03-21T06:18:12;97120;;;6.2;71.5
68489;BME280;55481;48.764;8.936;2023-03-21T06:30:40;97100;;;6.7;70.5
68489;BME280;55481;48.764;8.936;2023-03-21T06:33:12;97100;;;6.8;70
68489;BME280;55481;48.764;8.936;2023-03-21T06:35:41;97100;;;7;70
68489;BME280;55481;48.764;8.936;2023-03-21T06:38:12;97100;;;7.1;69.5
68489;BME280;55481;48.764;8.936;2023-03-21T06:40:44;97100;;;7.3;69.5
68489;BME280;55481;48.764;8.936;2023-03-21T06:43:14;97090;;;7.5;69
68489;BME280;55481;48.764;8.936;2023-03-21T06:45:45;97100;;;7.6;69
68489;BME280;55481;48.764;8.936;2023-03-21T06:53:29;97100;;;7.9;69
68489;BME280;55481;48.764;8.936;2023-03-21T07:01:01;97090;;;8.4;68
68489;BME280;55481;48.764;8.936;2023-03-21T07:03:31;97080;;;8.6;68
68489;BME280;55481;48.764;8.936;2023-03-21T07:05:56;97080;;;8.8;68
68489;BME280;55481;48.764;8.936;2023-03-21T07:08:27;97090;;;8.8;68
68489;BME280;55481;48.764;8.936;2023-03-21T07:10:57;97080;;;8.9;68
68489;BME280;55481;48.764;8.936;2023-03-21T07:13:28;97080;;;9.1;67.5
68489;BME280;55481;48.764;8.936;2023-03-21T07:15:59;97090;;;9.1;67.5
68489;BME280;55481;48.764;8.936;2023-03-21T07:18:37;97080;;;9.2;67.5
68489;BME280;55481;48.764;8.936;2023-03-21T07:21:08;97080;;;9.3;67.5
68489;BME280;55481;48.764;8.936;2023-03-21T07:26:03;97080;;;9.5;67.5
68489;BME280;55481;48.764;8.936;2023-03-21T07:31:18;97080;;;10;67
68489;BME280;55481;48.764;8.936;2023-03-21T07:33:41;97080;;;10.4;66.5
68489;BME280;55481;48.764;8.936;2023-03-21T07:36:13;97080;;;10.5;66.5
68489;BME280;55481;48.764;8.936;2023-03-21T07:38:35;97080;;;11.1;65.5
68489;BME280;55481;48.764;8.936;2023-03-21T07:41:06;97080;;;10.8;66.5
68489;BME280;55481;48.764;8.936;2023-03-21T07:43:38;97080;;;10.5;67
68489;BME280;55481;48.764;8.936;2023-03-21T07:46:08;97080;;;10.2;68
68489;BME280;55481;48.764;8.936;2023-03-21T07:48:39;97070;;;10.3;68
68489;BME280;55481;48.764;8.936;2023-03-21T07:51:11;97070;;;10.8;67
68489;BME280;55481;48.764;8.936;2023-03-21T07:53:48;97070;;;11.3;66
68489;BME280;55481;48.764;8.936;2023-03-21T07:56:20;97060;;;11.7;65
68489;BME280;55481;48.764;8.936;2023-03-21T08:01:14;97060;;;11.7;66
68489;BME280;55481;48.764;8.936;2023-03-21T08:03:46;97070;;;11.9;65.5
68489;BME280;55481;48.764;8.936;2023-03-21T08:06:25;97060;;;11.9;65.5
68489;BME280;55481;48.764;8.936;2023-03-21T08:08:47;97070;;;11.3;67
68489;BME280;55481;48.764;8.936;2023-03-21T08:11:18;97070;;;11;68
68489;BME280;55481;48.764;8.936;2023-03-21T08:13:49;97070;;;11.1;68
68489;BME280;55481;48.764;8.936;2023-03-21T08:16:20;97070;;;11.1;68
68489;BME280;55481;48.764;8.936;2023-03-21T08:18:52;97060;;;11.7;66.5
68489;BME280;55481;48.764;8.936;2023-03-21T08:23:46;97060;;;12.5;65
68489;BME280;55481;48.764;8.936;2023-03-21T08:28:53;97060;;;12.6;65.5
68489;BME280;55481;48.764;8.936;2023-03-21T08:31:19;97060;;;12.8;65.5
68489;BME280;55481;48.764;8.936;2023-03-21T08:33:50;97060;;;13.1;65
68489;BME280;55481;48.764;8.936;2023-03-21T08:36:25;97050;;;13.2;65
68489;BME280;55481;48.764;8.936;2023-03-21T08:38:51;97040;;;13.1;65
68489;BME280;55481;48.764;8.936;2023-03-21T08:41:22;97040;;;13.2;65
68489;BME280;55481;48.764;8.936;2023-03-21T08:43:59;97040;;;13.1;65
68489;BME280;55481;48.764;8.936;2023-03-21T08:46:36;97030;;;13.2;65
68489;BME280;55481;48.764;8.936;2023-03-21T08:49:22;97030;;;13.2;65
68489;BME280;55481;48.764;8.936;2023-03-21T08:56:41;97030;;;13.7;64.5
68489;BME280;55481;48.764;8.936;2023-03-21T08:59:10;97030;;;13.5;65
68489;BME280;55481;48.764;8.936;2023-03-21T09:01:41;97030;;;13.5;65
68489;BME280;55481;48.764;8.936;2023-03-21T09:04:10;97030;;;13.9;64
68489;BME280;55481;48.764;8.936;2023-03-21T09:09:05;97030;;;14.1;63.5
68489;BME280;55481;48.764;8.936;2023-03-21T09:11:35;97020;;;14.1;63
68489;BME280;55481;48.764;8.936;2023-03-21T09:14:13;97020;;;14.3;63
68489;BME280;55481;48.764;8.936;2023-03-21T09:16:44;97020;;;14.5;63
68489;BME280;55481;48.764;8.936;2023-03-21T09:21:58;97020;;;14.9;62.5
68489;BME280;55481;48.764;8.936;2023-03-21T09:24:16;97020;;;14.9;63
68489;BME280;55481;48.764;8.936;2023-03-21T09:29:10;97020;;;14.8;63.5
68489;BME280;55481;48.764;8.936;2023-03-21T09:31:40;97010;;;15.2;62
68489;BME280;55481;48.764;8.936;2023-03-21T09:34:13;97020;;;14.9;62.5
68489;BME280;55481;48.764;8.936;2023-03-21T09:36:42;97010;;;14.9;62.5
68489;BME280;55481;48.764;8.936;2023-03-21T09:45:12;97020;;;14.1;64.5
68489;BME280;55481;48.764;8.936;2023-03-21T09:46:41;97020;;;14.5;64
68489;BME280;55481;48.764;8.936;2023-03-21T09:49:14;97020;;;14.9;63
68489;BME280;55481;48.764;8.936;2023-03-21T09:51:41;97010;;;15.3;62
68489;BME280;55481;48.764;8.936;2023-03-21T09:54:12;97010;;;15.1;62.5
68489;BME280;55481;48.764;8.936;2023-03-21T09:56:42;97000;;;15.2;62.5
68489;BME280;55481;48.764;8.936;2023-03-21T09:59:18;97010;;;15.4;62
68489;BME280;55481;48.764;8.936;2023-03-21T10:01:45;97000;;;15.3;62.5
68489;BME280;55481;48.764;8.936;2023-03-21T10:04:14;97000;;;15.2;63
68489;BME280;55481;48.764;8.936;2023-03-21T10:14:18;96990;;;15.5;62
68489;BME280;55481;48.764;8.936;2023-03-21T10:16:48;97000;;;15.6;62
68489;BME280;55481;48.764;8.936;2023-03-21T10:19:25;96990;;;15.3;62.5
68489;BME280;55481;48.764;8.936;2023-03-21T10:21:56;97000;;;15;63.5
68489;BME280;55481;48.764;8.936;2023-03-21T10:24:27;97000;;;14.9;63.5
68489;BME280;55481;48.764;8.936;2023-03-21T10:26:58;96990;;;14.9;63.5
68489;BME280;55481;48.764;8.936;2023-03-21T10:31:53;96990;;;14.8;63.5
68489;BME280;55481;48.764;8.936;2023-03-21T10:41:56;96990;;;15.3;62
68489;BME280;55481;48.764;8.936;2023-03-21T10:44:29;96990;;;15.3;62.5
68489;BME280;55481;48.764;8.936;2023-03-21T10:49:29;97000;;;14.7;63.5
68489;BME280;55481;48.764;8.936;2023-03-21T10:52:02;96990;;;14.6;64
68489;BME280;55481;48.764;8.936;2023-03-21T10:54:30;96990;;;15;63
68489;BME280;55481;48.764;8.936;2023-03-21T11:07:29;96980;;;15.1;62
68489;BME280;55481;48.764;8.936;2023-03-21T11:10:00;96980;;;14.9;62.5
68489;BME280;55481;48.764;8.936;2023-03-21T11:14:42;96980;;;15.1;62
68489;BME280;55481;48.764;8.936;2023-03-21T11:17:20;96980;;;15.1;62
68489;BME280;55481;48.764;8.936;2023-03-21T11:22:09;96970;;;15.1;62.5
68489;BME280;55481;48.764;8.936;2023-03-21T11:32:18;96970;;;15.1;62
68489;BME280;55481;48.764;8.936;2023-03-21T11:34:45;96970;;;14.8;63
68489;BME280;55481;48.764;8.936;2023-03-21T11:37:20;96960;;;15;62.5
68489;BME280;55481;48.764;8.936;2023-03-21T11:39:42;96960;;;14.8;63
68489;BME280;55481;48.764;8.936;2023-03-21T11:42:30;96960;;;14.9;62.5
68489;BME280;55481;48.764;8.936;2023-03-21T11:47:20;96950;;;15.1;62
68489;BME280;55481;48.764;8.936;2023-03-21T11:49:52;96940;;;15.2;62
68489;BME280;55481;48.764;8.936;2023-03-21T11:52:26;96940;;;15.1;62
68489;BME280;55481;48.764;8.936;2023-03-21T11:55:09;96940;;;15.1;62
68489;BME280;55481;48.764;8.936;2023-03-21T11:57:34;96930;;;15.1;62
68489;BME280;55481;48.764;8.936;2023-03-21T12:02:49;96940;;;15;62
68489;BME280;55481;48.764;8.936;2023-03-21T12:05:06;96930;;;15.1;62
68489;BME280;55481;48.764;8.936;2023-03-21T12:10:15;96920;;;15.4;61.5
68489;BME280;55481;48.764;8.936;2023-03-21T12:17:28;96900;;;16.6;59
68489;BME280;55481;48.764;8.936;2023-03-21T12:24:56;96890;;;17;58.5
68489;BME280;55481;48.764;8.936;2023-03-21T12:28:00;96890;;;17;58.5
68489;BME280;55481;48.764;8.936;2023-03-21T12:32:50;96870;;;18.1;56
68489;BME280;55481;48.764;8.936;2023-03-21T12:35:08;96870;;;18.1;56
68489;BME280;55481;48.764;8.936;2023-03-21T12:37:39;96870;;;16.6;60
68489;BME280;55481;48.764;8.936;2023-03-21T12:40:11;96870;;;16.3;60.5
68489;BME280;55481;48.764;8.936;2023-03-21T12:42:48;96880;;;16.1;60.5
68489;BME280;55481;48.764;8.936;2023-03-21T12:45:11;96880;;;16.4;60
68489;BME280;55481;48.764;8.936;2023-03-21T12:47:39;96870;;;16.3;60
68489;BME280;55481;48.764;8.936;2023-03-21T12:50:20;96870;;;16.3;60
68489;BME280;55481;48.764;8.936;2023-03-21T12:58:20;96860;;;18;55.5
68489;BME280;55481;48.764;8.936;2023-03-21T13:00:22;96850;;;18.2;55.5
68489;BME280;55481;48.764;8.936;2023-03-21T13:05:19;96850;;;17.8;57
68489;BME280;55481;48.764;8.936;2023-03-21T13:07:47;96850;;;18.2;55.5
68489;BME280;55481;48.764;8.936;2023-03-21T13:10:18;96850;;;18.2;55.5
68489;BME280;55481;48.764;8.936;2023-03-21T13:12:50;96850;;;18;55.5
68489;BME280;55481;48.764;8.936;2023-03-21T13:15:58;96850;;;17.2;57.5
68489;BME280;55481;48.764;8.936;2023-03-21T13:20:55;96850;;;17;58.5
68489;BME280;55481;48.764;8.936;2023-03-21T13:22:56;96850;;;17.5;57.5
68489;BME280;55481;48.764;8.936;2023-03-21T13:27:51;96840;;;17.7;56.5
68489;BME280;55481;48.764;8.936;2023-03-21T13:30:22;96840;;;17.4;57.5
68489;BME280;55481;48.764;8.936;2023-03-21T13:33:11;96840;;;17.1;58
68489;BME280;55481;48.764;8.936;2023-03-21T13:35:25;96840;;;17;58
68489;BME280;55481;48.764;8.936;2023-03-21T13:48:28;96820;;;16.9;58
68489;BME280;55481;48.764;8.936;2023-03-21T13:50:34;96820;;;16.8;58
68489;BME280;55481;48.764;8.936;2023-03-21T13:53:17;96810;;;16.7;58.5
68489;BME280;55481;48.764;8.936;2023-03-21T13:55:38;96810;;;16.7;58.5
68489;BME280;55481;48.764;8.936;2023-03-21T13:57:55;96800;;;16.7;58.5
68489;BME280;55481;48.764;8.936;2023-03-21T14:00:28;96800;;;17;58
68489;BME280;55481;48.764;8.936;2023-03-21T14:03:08;96800;;;17.2;57.5
68489;BME280;55481;48.764;8.936;2023-03-21T14:10:51;96790;;;16.6;58.5
68489;BME280;55481;48.764;8.936;2023-03-21T14:13:07;96790;;;17;58
68489;BME280;55481;48.764;8.936;2023-03-21T14:15:38;96790;;;17.3;57
68489;BME280;55481;48.764;8.936;2023-03-21T14:20:32;96790;;;18.2;55.5
68489;BME280;55481;48.764;8.936;2023-03-21T14:23:03;96780;;;18.3;55.5
68489;BME280;55481;48.764;8.936;2023-03-21T14:25:35;96790;;;17.9;56.5
68489;BME280;55481;48.764;8.936;2023-03-21T14:28:05;96790;;;18;56
68489;BME280;55481;48.764;8.936;2023-03-21T14:35:49;96790;;;17.3;57
68489;BME280;55481;48.764;8.936;2023-03-21T14:38:20;96780;;;17.3;57
68489;BME280;55481;48.764;8.936;2023-03-21T14:43:13;96790;;;17.2;57
68489;BME280;55481;48.764;8.936;2023-03-21T14:45:45;96780;;;17.5;56
68489;BME280;55481;48.764;8.936;2023-03-21T14:48:14;96780;;;18.1;54.5
68489;BME280;55481;48.764;8.936;2023-03-21T14:50:45;96780;;;18.3;54
68489;BME280;55481;48.764;8.936;2023-03-21T14:53:10;96780;;;17.3;56
68489;BME280;55481;48.764;8.936;2023-03-21T14:55:48;96790;;;17;56.5
68489;BME280;55481;48.764;8.936;2023-03-21T14:58:16;96780;;;17.8;55
68489;BME280;55481;48.764;8.936;2023-03-21T15:03:04;96780;;;18.2;53.5
68489;BME280;55481;48.764;8.936;2023-03-21T15:05:36;96780;;;18.7;53
68489;BME280;55481;48.764;8.936;2023-03-21T15:08:07;96770;;;18.5;53
68489;BME280;55481;48.764;8.936;2023-03-21T15:10:37;96770;;;18.3;54
68489;BME280;55481;48.764;8.936;2023-03-21T15:15:37;96780;;;17.4;56
68489;BME280;55481;48.764;8.936;2023-03-21T15:18:09;96780;;;16.7;57.5
68489;BME280;55481;48.764;8.936;2023-03-21T15:20:39;96780;;;16.4;58
68489;BME280;55481;48.764;8.936;2023-03-21T15:28:28;96790;;;15.7;58.5
68489;BME280;55481;48.764;8.936;2023-03-21T15:31:03;96800;;;15.6;58.5
68489;BME280;55481;48.764;8.936;2023-03-21T15:33:38;96790;;;15.3;59.5
68489;BME280;55481;48.764;8.936;2023-03-21T15:35:55;96790;;;15.3;59
68489;BME280;55481;48.764;8.936;2023-03-21T15:40:49;96800;;;15.1;59
68489;BME280;55481;48.764;8.936;2023-03-21T15:43:19;96800;;;15.1;58.5
68489;BME280;55481;48.764;8.936;2023-03-21T15:48:16;96800;;;14.9;59
68489;BME280;55481;48.764;8.936;2023-03-21T15:55:48;96790;;;14.7;59
68489;BME280;55481;48.764;8.936;2023-03-21T15:58:19;96790;;;14.8;59
68489;BME280;55481;48.764;8.936;2023-03-21T16:00:50;96790;;;14.6;59
68489;BME280;55481;48.764;8.936;2023-03-21T16:06:28;96790;;;14.5;59
68489;BME280;55481;48.764;8.936;2023-03-21T16:08:35;96790;;;14.7;58.5
68489;BME280;55481;48.764;8.936;2023-03-21T16:11:05;96800;;;14.6;58.5
68489;BME280;55481;48.764;8.936;2023-03-21T16:15:58;96800;;;14.5;59
68489;BME280;55481;48.764;8.936;2023-03-21T16:18:35;96790;;;14.5;59
68489;BME280;55481;48.764;8.936;2023-03-21T16:21:10;96780;;;14.5;59
68489;BME280;55481;48.764;8.936;2023-03-21T16:25:55;96790;;;14.4;59
68489;BME280;55481;48.764;8.936;2023-03-21T16:28:28;96790;;;14.4;59.5
68489;BME280;55481;48.764;8.936;2023-03-21T16:31:08;96790;;;14.4;59.5
68489;BME280;55481;48.764;8.936;2023-03-21T16:38:47;96800;;;14.2;59.5
68489;BME280;55481;48.764;8.936;2023-03-21T16:41:12;96800;;;14.2;59.5
68489;BME280;55481;48.764;8.936;2023-03-21T16:43:42;96800;;;14.2;59.5
68489;BME280;55481;48.764;8.936;2023-03-21T16:46:15;96800;;;14;59.5
68489;BME280;55481;48.764;8.936;2023-03-21T16:51:13;96810;;;14;59.5
68489;BME280;55481;48.764;8.936;2023-03-21T16:56:18;96810;;;13.8;60
68489;BME280;55481;48.764;8.936;2023-03-21T16:58:47;96810;;;13.7;60
68489;BME280;55481;48.764;8.936;2023-03-21T17:01:18;96800;;;13.8;60
68489;BME280;55481;48.764;8.936;2023-03-21T17:03:47;96800;;;13.8;59.5
68489;BME280;55481;48.764;8.936;2023-03-21T17:06:19;96800;;;13.8;59.5
68489;BME280;55481;48.764;8.936;2023-03-21T17:08:42;96810;;;13.8;59.5
68489;BME280;55481;48.764;8.936;2023-03-21T17:11:14;96810;;;13.7;59.5
68489;BME280;55481;48.764;8.936;2023-03-21T17:13:45;96810;;;13.7;60
68489;BME280;55481;48.764;8.936;2023-03-21T17:18:39;96810;;;13.6;60
68489;BME280;55481;48.764;8.936;2023-03-21T17:21:11;96810;;;13.6;60
68489;BME280;55481;48.764;8.936;2023-03-21T17:23:41;96810;;;13.5;60
68489;BME280;55481;48.764;8.936;2023-03-21T17:26:18;96820;;;13.4;60.5
68489;BME280;55481;48.764;8.936;2023-03-21T17:28:42;96820;;;13.4;60.5
68489;BME280;55481;48.764;8.936;2023-03-21T17:31:13;96810;;;13.4;60.5
68489;BME280;55481;48.764;8.936;2023-03-21T17:33:46;96820;;;13.4;60.5
68489;BME280;55481;48.764;8.936;2023-03-21T17:36:18;96820;;;13.4;60.5
68489;BME280;55481;48.764;8.936;2023-03-21T17:38:45;96820;;;13.4;60.5
68489;BME280;55481;48.764;8.936;2023-03-21T17:41:16;96820;;;13.2;60.5
68489;BME280;55481;48.764;8.936;2023-03-21T17:51:19;96820;;;13.1;60.5
68489;BME280;55481;48.764;8.936;2023-03-21T17:53:57;96820;;;13.1;60.5
68489;BME280;55481;48.764;8.936;2023-03-21T17:58:59;96820;;;13;60.5
68489;BME280;55481;48.764;8.936;2023-03-21T18:01:29;96830;;;13;60.5
68489;BME280;55481;48.764;8.936;2023-03-21T18:04:00;96830;;;13;60.5
68489;BME280;55481;48.764;8.936;2023-03-21T18:06:31;96830;;;12.9;61
68489;BME280;55481;48.764;8.936;2023-03-21T18:08:54;96830;;;12.9;61
68489;BME280;55481;48.764;8.936;2023-03-21T18:11:25;96830;;;12.9;61
68489;BME280;55481;48.764;8.936;2023-03-21T18:18:57;96820;;;12.6;61
68489;BME280;55481;48.764;8.936;2023-03-21T18:21:28;96820;;;12.5;61.5
68489;BME280;55481;48.764;8.936;2023-03-21T18:23:59;96830;;;12.4;61.5
68489;BME280;55481;48.764;8.936;2023-03-21T18:26:30;96820;;;12.3;61.5
68489;BME280;55481;48.764;8.936;2023-03-21T18:29:13;96820;;;12.4;61.5
68489;BME280;55481;48.764;8.936;2023-03-21T18:31:44;96820;;;12.3;61.5
68489;BME280;55481;48.764;8.936;2023-03-21T18:34:14;96830;;;12.3;61.5
68489;BME280;55481;48.764;8.936;2023-03-21T18:36:45;96820;;;12.3;61.5
68489;BME280;55481;48.764;8.936;2023-03-21T18:39:14;96820;;;12.3;61.5
68489;BME280;55481;48.764;8.936;2023-03-21T18:41:44;96820;;;12.3;61.5
68489;BME280;55481;48.764;8.936;2023-03-21T18:44:09;96830;;;12.3;61.5
68489;BME280;55481;48.764;8.936;2023-03-21T18:46:46;96830;;;12.2;61.5
68489;BME280;55481;48.764;8.936;2023-03-21T18:51:42;96850;;;12.3;61.5
68489;BME280;55481;48.764;8.936;2023-03-21T18:54:13;96850;;;12.2;61.5
68489;BME280;55481;48.764;8.936;2023-03-21T18:56:45;96860;;;12.2;61.5
68489;BME280;55481;48.764;8.936;2023-03-21T18:59:21;96860;;;12.2;61.5
68489;BME280;55481;48.764;8.936;2023-03-21T19:01:46;96850;;;12.1;62
68489;BME280;55481;48.764;8.936;2023-03-21T19:04:17;96840;;;12.2;61.5
68489;BME280;55481;48.764;8.936;2023-03-21T19:06:49;96830;;;12.2;61.5
68489;BME280;55481;48.764;8.936;2023-03-21T19:09:11;96830;;;12.2;61.5
68489;BME280;55481;48.764;8.936;2023-03-21T19:16:44;96840;;;12.1;62
68489;BME280;55481;48.764;8.936;2023-03-21T19:21:44;96850;;;12;62
68489;BME280;55481;48.764;8.936;2023-03-21T19:24:16;96840;;;11.9;62
68489;BME280;55481;48.764;8.936;2023-03-21T19:29:23;96840;;;12;62
68489;BME280;55481;48.764;8.936;2023-03-21T19:31:54;96840;;;12;62
68489;BME280;55481;48.764;8.936;2023-03-21T19:34:25;96840;;;12;62
68489;BME280;55481;48.764;8.936;2023-03-21T19:36:56;96840;;;12;62
68489;BME280;55481;48.764;8.936;2023-03-21T19:39:27;96840;;;12.1;61.5
68489;BME280;55481;48.764;8.936;2023-03-21T19:42:04;96840;;;12;62
68489;BME280;55481;48.764;8.936;2023-03-21T19:44:34;96840;;;11.8;62.5
68489;BME280;55481;48.764;8.936;2023-03-21T19:49:29;96830;;;11.8;62
68489;BME280;55481;48.764;8.936;2023-03-21T19:51:59;96820;;;11.8;62
68489;BME280;55481;48.764;8.936;2023-03-21T19:54:30;96820;;;11.8;62
68489;BME280;55481;48.764;8.936;2023-03-21T19:56:54;96820;;;11.8;62